createdAt,value
2023-03-26T00:00:00.154Z,59.03
2023-03-26T00:01:07.289Z,59.24
2023-03-26T00:02:10.197Z,59.03
2023-03-26T00:03:14.088Z,59.03
2023-03-26T00:04:29.099Z,59.58
2023-03-26T00:05:33.453Z,59.73
2023-03-26T00:06:40.276Z,59.27
2023-03-26T00:07:43.717Z,58.81
2023-03-26T00:08:54.066Z,58.81
2023-03-26T00:09:58.452Z,59.13
2023-03-26T00:11:01.321Z,59.11
2023-03-26T00:12:04.230Z,59.29
2023-03-26T00:13:08.064Z,59.41
2023-03-26T00:14:21.103Z,59.52
2023-03-26T00:15:23.944Z,60.14
2023-03-26T00:16:32.405Z,60.83
2023-03-26T00:17:35.839Z,60.96
2023-03-26T00:18:39.009Z,61.43
2023-03-26T00:19:48.113Z,61.48
2023-03-26T00:20:50.933Z,61.67
2023-03-26T00:21:54.474Z,61.77
2023-03-26T00:22:57.780Z,61.93
2023-03-26T00:24:05.632Z,62.13
2023-03-26T00:25:15.168Z,62.14
2023-03-26T00:26:18.744Z,62.35
2023-03-26T00:27:21.550Z,62.39
2023-03-26T00:28:25.915Z,62.35
2023-03-26T00:29:29.262Z,62.61
2023-03-26T00:30:38.203Z,62.60
2023-03-26T00:31:42.217Z,62.67
2023-03-26T00:32:45.548Z,62.46
2023-03-26T00:33:56.907Z,62.60
2023-03-26T00:34:59.765Z,62.78
2023-03-26T00:36:09.363Z,62.84
2023-03-26T00:37:13.829Z,62.85
2023-03-26T00:38:16.860Z,62.85
2023-03-26T00:39:19.649Z,62.91
2023-03-26T00:40:24.713Z,62.77
2023-03-26T00:41:34.396Z,62.72
2023-03-26T00:42:37.642Z,62.48
2023-03-26T00:43:40.494Z,62.40
2023-03-26T00:45:05.431Z,62.37
2023-03-26T00:46:15.474Z,62.31
2023-03-26T00:47:18.707Z,62.29
2023-03-26T00:48:34.308Z,62.32
2023-03-26T00:49:41.018Z,62.30
2023-03-26T00:50:45.984Z,62.26
2023-03-26T00:51:55.402Z,62.33
2023-03-26T00:52:58.339Z,62.33
2023-03-26T00:54:01.266Z,62.28
2023-03-26T00:55:04.359Z,62.51
2023-03-26T00:56:08.304Z,62.48
2023-03-26T00:57:28.955Z,62.52
2023-03-26T00:58:38.352Z,62.78
2023-03-26T00:59:42.522Z,62.77
2023-03-26T01:00:52.924Z,62.86
2023-03-26T01:02:03.499Z,62.84
2023-03-26T01:03:08.090Z,62.88
2023-03-26T01:04:25.417Z,63.02
2023-03-26T01:05:37.153Z,63.09
2023-03-26T01:06:43.244Z,62.97
2023-03-26T01:07:52.444Z,62.79
2023-03-26T01:09:01.296Z,62.96
2023-03-26T01:10:04.204Z,62.89
2023-03-26T01:11:17.449Z,62.95
2023-03-26T01:12:25.173Z,62.86
2023-03-26T01:13:34.501Z,62.72
2023-03-26T01:14:37.458Z,62.94
2023-03-26T01:15:40.569Z,62.86
2023-03-26T01:16:47.368Z,62.78
2023-03-26T01:17:53.264Z,62.73
2023-03-26T01:19:06.481Z,62.81
2023-03-26T01:20:20.571Z,62.89
2023-03-26T01:21:29.793Z,62.97
2023-03-26T01:22:32.875Z,63.13
2023-03-26T01:23:59.516Z,63.10
2023-03-26T01:25:02.366Z,63.04
2023-03-26T01:26:37.791Z,63.14
2023-03-26T01:27:47.965Z,63.06
2023-03-26T01:29:02.527Z,63.24
2023-03-26T01:30:25.582Z,63.01
2023-03-26T01:31:38.447Z,63.00
2023-03-26T01:33:03.595Z,62.69
2023-03-26T01:34:21.514Z,62.67
2023-03-26T01:35:36.134Z,62.60
2023-03-26T01:36:58.959Z,62.52
2023-03-26T01:38:11.772Z,62.37
2023-03-26T01:39:57.520Z,62.34
2023-03-26T01:41:16.615Z,62.21
2023-03-26T01:42:32.160Z,62.03
2023-03-26T01:43:57.436Z,62.29
2023-03-26T01:45:48.582Z,61.74
2023-03-26T01:46:53.422Z,62.01
2023-03-26T01:47:57.420Z,61.80
2023-03-26T01:49:00.262Z,61.61
2023-03-26T01:50:03.154Z,61.29
2023-03-26T01:51:13.509Z,60.98
2023-03-26T01:52:21.759Z,60.89
2023-03-26T01:53:24.809Z,60.89
2023-03-26T01:54:31.572Z,61.15
2023-03-26T01:56:03.524Z,61.11
2023-03-26T01:57:25.839Z,61.02
2023-03-26T01:58:53.103Z,60.53
2023-03-26T02:00:14.234Z,60.65
2023-03-26T02:01:24.706Z,60.60
2023-03-26T02:02:39.974Z,60.36
2023-03-26T02:03:50.658Z,60.40
2023-03-26T02:04:59.068Z,60.53
2023-03-26T02:06:48.682Z,60.92
2023-03-26T02:08:13.236Z,60.78
2023-03-26T02:09:23.673Z,60.85
2023-03-26T02:10:32.056Z,60.54
2023-03-26T02:11:36.719Z,60.34
2023-03-26T02:12:46.701Z,60.01
2023-03-26T02:13:49.793Z,59.95
2023-03-26T02:14:52.968Z,60.10
2023-03-26T02:16:07.740Z,60.14
2023-03-26T02:17:12.207Z,59.86
2023-03-26T02:18:21.684Z,59.68
2023-03-26T02:19:25.900Z,59.68
2023-03-26T02:20:31.970Z,59.65
2023-03-26T02:21:35.277Z,59.74
2023-03-26T02:22:42.283Z,59.83
2023-03-26T02:23:54.676Z,59.79
2023-03-26T02:24:57.584Z,59.64
2023-03-26T02:26:00.412Z,60.16
2023-03-26T02:27:03.529Z,59.93
2023-03-26T02:28:06.772Z,59.73
2023-03-26T02:29:16.695Z,59.69
2023-03-26T02:30:28.342Z,59.79
2023-03-26T02:31:31.394Z,59.67
2023-03-26T02:32:34.291Z,59.78
2023-03-26T02:33:37.201Z,59.99
2023-03-26T02:34:47.721Z,60.24
2023-03-26T02:35:50.744Z,60.21
2023-03-26T02:36:53.661Z,60.36
2023-03-26T02:37:56.552Z,60.22
2023-03-26T02:38:59.389Z,59.75
2023-03-26T02:40:09.868Z,59.94
2023-03-26T02:41:12.744Z,60.64
2023-03-26T02:42:17.421Z,60.64
2023-03-26T02:43:20.339Z,60.64
2023-03-26T02:44:23.236Z,60.07
2023-03-26T02:45:38.804Z,59.88
2023-03-26T02:46:41.725Z,60.00
2023-03-26T02:47:44.758Z,60.62
2023-03-26T02:48:47.590Z,60.86
2023-03-26T02:49:50.472Z,60.60
2023-03-26T02:51:01.762Z,60.44
2023-03-26T02:52:07.630Z,60.49
2023-03-26T02:53:11.063Z,60.68
2023-03-26T02:54:13.932Z,60.66
2023-03-26T02:55:17.371Z,60.89
2023-03-26T02:56:26.744Z,60.91
2023-03-26T02:57:30.015Z,60.65
2023-03-26T02:58:33.482Z,60.33
2023-03-26T02:59:36.301Z,60.50
2023-03-26T03:00:39.698Z,60.06
2023-03-26T03:01:51.780Z,59.98
2023-03-26T03:02:55.456Z,60.03
2023-03-26T03:03:58.540Z,60.61
2023-03-26T03:05:02.739Z,61.07
2023-03-26T03:06:05.896Z,60.92
2023-03-26T03:07:15.802Z,60.93
2023-03-26T03:08:19.904Z,60.86
2023-03-26T03:09:22.734Z,60.45
2023-03-26T03:10:29.956Z,60.90
2023-03-26T03:11:32.875Z,60.95
2023-03-26T03:12:42.767Z,61.01
2023-03-26T03:13:46.608Z,60.95
2023-03-26T03:14:49.558Z,61.46
2023-03-26T03:15:52.643Z,61.01
2023-03-26T03:16:55.630Z,60.89
2023-03-26T03:18:04.816Z,60.90
2023-03-26T03:19:07.843Z,61.74
2023-03-26T03:20:10.996Z,61.32
2023-03-26T03:21:13.797Z,61.76
2023-03-26T03:22:16.803Z,61.48
2023-03-26T03:23:25.840Z,61.38
2023-03-26T03:24:28.680Z,61.24
2023-03-26T03:25:31.547Z,61.11
2023-03-26T03:26:35.406Z,61.49
2023-03-26T03:27:40.514Z,61.99
2023-03-26T03:28:49.853Z,61.80
2023-03-26T03:29:54.918Z,61.11
2023-03-26T03:30:58.795Z,62.01
2023-03-26T03:32:01.730Z,61.87
2023-03-26T03:33:04.777Z,61.59
2023-03-26T03:34:13.814Z,61.81
2023-03-26T03:35:17.032Z,61.96
2023-03-26T03:36:25.469Z,62.01
2023-03-26T03:37:28.591Z,62.93
2023-03-26T03:38:31.620Z,62.71
2023-03-26T03:39:40.859Z,62.77
2023-03-26T03:40:44.538Z,62.45
2023-03-26T03:41:47.370Z,62.40
2023-03-26T03:42:50.252Z,62.62
2023-03-26T03:43:53.254Z,62.79
2023-03-26T03:45:02.863Z,62.81
2023-03-26T03:46:12.033Z,63.40
2023-03-26T03:47:21.657Z,63.01
2023-03-26T03:48:24.565Z,63.02
2023-03-26T03:49:27.413Z,63.46
2023-03-26T03:50:36.874Z,63.67
2023-03-26T03:51:39.689Z,63.55
2023-03-26T03:52:42.541Z,63.65
2023-03-26T03:53:47.535Z,63.39
2023-03-26T03:54:56.874Z,63.56
2023-03-26T03:55:59.923Z,63.59
2023-03-26T03:57:03.393Z,63.69
2023-03-26T03:58:07.366Z,63.70
2023-03-26T03:59:10.233Z,63.72
2023-03-26T04:00:21.166Z,63.71
2023-03-26T04:01:24.796Z,63.80
2023-03-26T04:02:31.573Z,63.95
2023-03-26T04:03:40.089Z,64.22
2023-03-26T04:04:43.275Z,64.65
2023-03-26T04:06:02.904Z,64.21
2023-03-26T04:07:06.810Z,64.92
2023-03-26T04:08:09.586Z,64.85
2023-03-26T04:09:12.425Z,64.69
2023-03-26T04:10:16.942Z,64.72
2023-03-26T04:11:25.909Z,64.83
2023-03-26T04:12:29.657Z,64.90
2023-03-26T04:13:32.669Z,64.92
2023-03-26T04:14:35.488Z,64.90
2023-03-26T04:15:38.545Z,65.41
2023-03-26T04:16:47.913Z,65.50
2023-03-26T04:17:50.805Z,64.74
2023-03-26T04:18:53.663Z,64.79
2023-03-26T04:19:56.501Z,64.78
2023-03-26T04:21:03.692Z,64.76
2023-03-26T04:22:12.913Z,65.25
2023-03-26T04:23:19.292Z,65.22
2023-03-26T04:24:23.687Z,65.22
2023-03-26T04:25:31.613Z,64.76
2023-03-26T04:26:34.582Z,65.42
2023-03-26T04:27:44.948Z,65.10
2023-03-26T04:28:56.646Z,64.78
2023-03-26T04:30:02.916Z,64.59
2023-03-26T04:31:06.097Z,64.54
2023-03-26T04:32:15.587Z,64.30
2023-03-26T04:33:24.986Z,64.08
2023-03-26T04:34:27.916Z,64.28
2023-03-26T04:35:37.427Z,64.36
2023-03-26T04:36:42.012Z,64.68
2023-03-26T04:37:53.984Z,64.83
2023-03-26T04:38:59.606Z,65.06
2023-03-26T04:40:10.704Z,64.77
2023-03-26T04:41:20.956Z,65.06
2023-03-26T04:42:24.328Z,65.38
2023-03-26T04:43:27.968Z,64.66
2023-03-26T04:44:31.678Z,64.89
2023-03-26T04:45:41.110Z,64.26
2023-03-26T04:46:52.052Z,64.28
2023-03-26T04:47:54.980Z,65.15
2023-03-26T04:48:58.096Z,64.93
2023-03-26T04:50:00.921Z,64.63
2023-03-26T04:51:03.919Z,65.34
2023-03-26T04:52:13.025Z,64.78
2023-03-26T04:53:18.960Z,65.21
2023-03-26T04:54:25.650Z,64.81
2023-03-26T04:55:38.782Z,64.70
2023-03-26T04:56:44.640Z,64.83
2023-03-26T04:58:01.016Z,64.79
2023-03-26T04:59:04.547Z,64.79
2023-03-26T05:00:16.296Z,64.90
2023-03-26T05:01:19.210Z,64.95
2023-03-26T05:02:29.018Z,65.26
2023-03-26T05:03:33.701Z,65.11
2023-03-26T05:04:38.075Z,65.45
2023-03-26T05:05:42.133Z,65.69
2023-03-26T05:06:45.130Z,66.73
2023-03-26T05:07:54.066Z,66.37
2023-03-26T05:08:57.140Z,65.71
2023-03-26T05:10:00.026Z,65.88
2023-03-26T05:11:02.928Z,66.21
2023-03-26T05:12:06.020Z,66.11
2023-03-26T05:13:15.015Z,65.92
2023-03-26T05:14:18.624Z,66.23
2023-03-26T05:15:21.575Z,66.06
2023-03-26T05:16:25.322Z,66.12
2023-03-26T05:17:32.198Z,66.45
2023-03-26T05:18:42.087Z,66.49
2023-03-26T05:19:44.918Z,66.67
2023-03-26T05:20:47.858Z,67.06
2023-03-26T05:21:50.703Z,66.35
2023-03-26T05:22:53.927Z,66.25
2023-03-26T05:24:03.049Z,66.27
2023-03-26T05:25:06.505Z,66.40
2023-03-26T05:26:10.860Z,66.62
2023-03-26T05:27:18.343Z,66.24
2023-03-26T05:28:25.509Z,66.03
2023-03-26T05:29:35.031Z,66.27
2023-03-26T05:30:38.065Z,66.06
2023-03-26T05:31:40.867Z,66.19
2023-03-26T05:32:44.463Z,66.44
2023-03-26T05:33:47.852Z,66.15
2023-03-26T05:34:57.058Z,66.13
2023-03-26T05:36:16.567Z,66.45
2023-03-26T05:37:21.208Z,66.32
2023-03-26T05:38:24.515Z,66.29
2023-03-26T05:39:35.096Z,66.34
2023-03-26T05:40:38.052Z,66.61
2023-03-26T05:41:41.175Z,66.38
2023-03-26T05:42:51.081Z,66.02
2023-03-26T05:43:53.958Z,65.86
2023-03-26T05:45:17.139Z,65.69
2023-03-26T05:46:21.653Z,65.43
2023-03-26T05:47:24.547Z,65.17
2023-03-26T05:48:34.145Z,64.98
2023-03-26T05:49:37.591Z,64.92
2023-03-26T05:50:40.461Z,64.98
2023-03-26T05:51:43.299Z,64.93
2023-03-26T05:52:46.156Z,65.03
2023-03-26T05:53:55.194Z,64.81
2023-03-26T05:54:58.034Z,65.07
2023-03-26T05:56:03.706Z,64.71
2023-03-26T05:57:06.541Z,64.11
2023-03-26T05:58:09.368Z,64.10
2023-03-26T05:59:19.233Z,64.83
2023-03-26T06:00:23.004Z,64.94
2023-03-26T06:01:26.866Z,64.92
2023-03-26T06:02:30.714Z,65.13
2023-03-26T06:03:35.011Z,64.88
2023-03-26T06:04:48.313Z,64.30
2023-03-26T06:05:51.298Z,63.17
2023-03-26T06:06:55.316Z,62.66
2023-03-26T06:07:58.184Z,62.01
2023-03-26T06:09:08.231Z,62.35
2023-03-26T06:10:11.249Z,62.84
2023-03-26T06:11:21.467Z,63.11
2023-03-26T06:12:24.344Z,62.55
2023-03-26T06:13:27.380Z,61.63
2023-03-26T06:14:36.236Z,61.34
2023-03-26T06:15:39.283Z,62.16
2023-03-26T06:16:42.149Z,62.47
2023-03-26T06:17:45.073Z,61.93
2023-03-26T06:18:48.335Z,61.82
2023-03-26T06:21:09.461Z,61.71
2023-03-26T06:22:12.973Z,61.35
2023-03-26T06:23:15.845Z,60.80
2023-03-26T06:24:20.224Z,61.35
2023-03-26T06:25:29.252Z,61.47
2023-03-26T06:26:32.264Z,61.34
2023-03-26T06:27:35.096Z,61.17
2023-03-26T06:28:37.902Z,60.75
2023-03-26T06:29:40.725Z,60.87
2023-03-26T06:30:50.288Z,60.36
2023-03-26T06:31:53.184Z,59.97
2023-03-26T06:32:56.071Z,59.68
2023-03-26T06:33:58.938Z,59.65
2023-03-26T06:35:01.956Z,59.67
2023-03-26T06:36:11.333Z,59.04
2023-03-26T06:37:14.196Z,58.94
2023-03-26T06:38:17.056Z,59.63
2023-03-26T06:39:21.284Z,59.79
2023-03-26T06:40:24.710Z,59.54
2023-03-26T06:41:34.274Z,59.10
2023-03-26T06:43:09.669Z,59.04
2023-03-26T06:43:59.869Z,59.16
2023-03-26T06:45:23.308Z,59.42
2023-03-26T06:46:33.344Z,59.05
2023-03-26T06:47:36.300Z,58.82
2023-03-26T06:48:39.815Z,58.70
2023-03-26T06:49:44.920Z,58.33
2023-03-26T06:50:48.327Z,58.40
2023-03-26T06:51:58.312Z,57.62
2023-03-26T06:53:02.214Z,57.44
2023-03-26T06:54:05.169Z,58.06
2023-03-26T06:55:09.983Z,58.14
2023-03-26T06:56:12.813Z,58.21
2023-03-26T06:57:22.317Z,57.80
2023-03-26T06:58:31.310Z,58.61
2023-03-26T06:59:34.124Z,58.49
2023-03-26T07:00:36.990Z,58.53
2023-03-26T07:01:40.129Z,58.03
2023-03-26T07:02:43.053Z,57.68
2023-03-26T07:03:52.385Z,58.09
2023-03-26T07:04:55.334Z,57.47
2023-03-26T07:05:58.333Z,57.90
2023-03-26T07:07:01.179Z,58.05
2023-03-26T07:08:04.355Z,57.74
2023-03-26T07:09:14.374Z,57.24
2023-03-26T07:10:17.763Z,57.52
2023-03-26T07:11:22.014Z,57.25
2023-03-26T07:12:24.831Z,56.96
2023-03-26T07:13:27.668Z,57.25
2023-03-26T07:14:38.329Z,56.95
2023-03-26T07:15:41.211Z,57.70
2023-03-26T07:16:44.114Z,57.86
2023-03-26T07:17:47.014Z,58.08
2023-03-26T07:18:49.928Z,56.90
2023-03-26T07:20:01.345Z,57.09
2023-03-26T07:21:04.581Z,57.77
2023-03-26T07:22:07.703Z,57.39
2023-03-26T07:23:12.988Z,58.02
2023-03-26T07:24:16.280Z,57.21
2023-03-26T07:25:26.384Z,57.12
2023-03-26T07:27:09.541Z,56.63
2023-03-26T07:28:38.017Z,55.49
2023-03-26T07:29:48.967Z,55.84
2023-03-26T07:31:11.419Z,55.12
2023-03-26T07:32:35.408Z,54.91
2023-03-26T07:34:05.228Z,54.52
2023-03-26T07:35:36.444Z,54.44
2023-03-26T07:36:46.664Z,54.44
2023-03-26T07:38:05.935Z,54.07
2023-03-26T07:39:28.026Z,52.90
2023-03-26T07:41:20.433Z,52.12
2023-03-26T07:42:26.289Z,52.38
2023-03-26T07:43:59.649Z,51.33
2023-03-26T07:45:58.514Z,51.46
2023-03-26T07:47:06.151Z,50.97
2023-03-26T07:48:21.486Z,50.48
2023-03-26T07:49:24.692Z,50.63
2023-03-26T07:50:27.986Z,51.33
2023-03-26T07:51:37.537Z,51.59
2023-03-26T07:52:40.697Z,51.79
2023-03-26T07:53:43.816Z,52.38
2023-03-26T07:54:49.761Z,52.12
2023-03-26T07:56:35.643Z,52.35
2023-03-26T07:57:46.675Z,51.42
2023-03-26T07:59:27.771Z,52.04
2023-03-26T08:00:42.805Z,50.63
2023-03-26T08:02:29.591Z,52.07
2023-03-26T08:03:47.910Z,51.51
2023-03-26T08:05:27.433Z,51.97
2023-03-26T08:06:45.551Z,51.71
2023-03-26T08:08:15.037Z,51.92
2023-03-26T08:10:02.387Z,51.61
2023-03-26T08:11:19.154Z,51.56
2023-03-26T08:12:47.541Z,51.46
2023-03-26T08:13:58.353Z,51.62
2023-03-26T08:15:32.098Z,52.15
2023-03-26T08:16:55.821Z,51.39
2023-03-26T08:18:08.741Z,52.03
2023-03-26T08:19:32.094Z,53.01
2023-03-26T08:20:45.662Z,52.86
2023-03-26T08:21:56.828Z,51.67
2023-03-26T08:23:20.560Z,52.60
2023-03-26T08:24:34.836Z,51.95
2023-03-26T08:25:51.118Z,50.46
2023-03-26T08:27:03.880Z,51.01
2023-03-26T08:28:24.581Z,49.88
2023-03-26T08:29:43.611Z,50.03
2023-03-26T08:30:48.210Z,50.98
2023-03-26T08:31:51.966Z,50.73
2023-03-26T08:33:21.886Z,50.38
2023-03-26T08:34:31.729Z,50.04
2023-03-26T08:35:36.412Z,50.16
2023-03-26T08:36:39.455Z,49.66
2023-03-26T08:37:42.509Z,49.80
2023-03-26T08:38:46.874Z,49.67
2023-03-26T08:39:56.695Z,49.95
2023-03-26T08:41:18.330Z,50.12
2023-03-26T08:42:23.980Z,50.52
2023-03-26T08:43:26.793Z,50.15
2023-03-26T08:45:03.728Z,50.43
2023-03-26T08:46:29.804Z,50.38
2023-03-26T08:47:50.966Z,49.36
2023-03-26T08:49:12.237Z,50.08
2023-03-26T08:50:47.744Z,50.40
2023-03-26T08:51:56.703Z,48.92
2023-03-26T08:53:27.425Z,49.25
2023-03-26T08:54:55.606Z,49.29
2023-03-26T08:56:38.780Z,50.03
2023-03-26T08:58:05.961Z,50.49
2023-03-26T08:59:27.422Z,50.97
2023-03-26T09:00:45.784Z,52.05
2023-03-26T09:02:22.636Z,51.04
2023-03-26T09:03:44.830Z,50.87
2023-03-26T09:04:59.606Z,50.78
2023-03-26T09:06:42.775Z,50.82
2023-03-26T09:08:10.087Z,51.09
2023-03-26T09:09:34.577Z,51.79
2023-03-26T09:11:04.901Z,52.82
2023-03-26T09:12:26.786Z,52.22
2023-03-26T09:14:06.896Z,51.89
2023-03-26T09:15:24.641Z,51.36
2023-03-26T09:17:11.797Z,51.32
2023-03-26T09:18:44.636Z,51.73
2023-03-26T09:20:24.381Z,51.40
2023-03-26T09:21:45.956Z,50.57
2023-03-26T09:23:15.038Z,51.08
2023-03-26T09:24:55.568Z,51.24
2023-03-26T09:26:20.145Z,50.38
2023-03-26T09:27:35.647Z,48.85
2023-03-26T09:29:06.801Z,49.16
2023-03-26T09:30:42.559Z,48.98
2023-03-26T09:32:03.779Z,49.17
2023-03-26T09:33:27.828Z,48.84
2023-03-26T09:34:40.888Z,48.59
2023-03-26T09:35:53.438Z,48.40
2023-03-26T09:37:14.633Z,48.55
2023-03-26T09:38:49.818Z,50.40
2023-03-26T09:40:06.395Z,50.37
2023-03-26T09:41:33.521Z,48.91
2023-03-26T09:42:42.546Z,50.25
2023-03-26T09:43:54.908Z,47.15
2023-03-26T09:45:18.654Z,46.59
2023-03-26T09:46:59.872Z,45.97
2023-03-26T09:49:02.810Z,45.26
2023-03-26T09:50:44.875Z,44.32
2023-03-26T09:52:09.206Z,43.94
2023-03-26T09:53:27.759Z,43.80
2023-03-26T09:54:36.643Z,44.09
2023-03-26T09:55:51.915Z,44.99
2023-03-26T09:57:30.450Z,45.65
2023-03-26T09:58:45.229Z,45.30
2023-03-26T10:00:15.083Z,44.15
2023-03-26T10:01:24.976Z,44.91
2023-03-26T10:03:08.808Z,45.16
2023-03-26T10:04:30.385Z,48.40
2023-03-26T10:05:53.965Z,51.09
2023-03-26T10:07:16.930Z,51.72
2023-03-26T10:08:32.041Z,52.72
2023-03-26T10:10:05.517Z,53.65
2023-03-26T10:11:14.114Z,52.06
2023-03-26T10:12:35.934Z,53.01
2023-03-26T10:14:06.513Z,52.89
2023-03-26T10:15:36.992Z,54.31
2023-03-26T10:16:49.654Z,55.51
2023-03-26T10:18:27.614Z,54.33
2023-03-26T10:20:12.858Z,52.52
2023-03-26T10:21:30.771Z,50.89
2023-03-26T10:22:57.928Z,51.13
2023-03-26T10:24:50.476Z,49.71
2023-03-26T10:26:17.233Z,50.97
2023-03-26T10:27:40.967Z,52.65
2023-03-26T10:29:16.160Z,52.67
2023-03-26T10:30:46.621Z,51.44
2023-03-26T10:32:13.890Z,51.57
2023-03-26T10:33:40.962Z,51.53
2023-03-26T10:35:07.767Z,52.02
2023-03-26T10:36:16.133Z,52.50
2023-03-26T10:37:18.971Z,50.76
2023-03-26T10:38:51.985Z,51.73
2023-03-26T10:40:04.012Z,53.52
2023-03-26T10:41:25.005Z,51.56
2023-03-26T10:42:51.545Z,51.91
2023-03-26T10:44:18.977Z,51.89
2023-03-26T10:46:03.488Z,52.68
2023-03-26T10:47:33.018Z,54.31
2023-03-26T10:49:21.982Z,53.57
2023-03-26T10:50:55.667Z,51.55
2023-03-26T10:52:03.462Z,51.49
2023-03-26T10:53:15.348Z,52.22
2023-03-26T10:54:48.978Z,47.35
2023-03-26T10:56:03.040Z,46.24
2023-03-26T10:57:21.088Z,46.99
2023-03-26T10:58:27.611Z,43.91
2023-03-26T10:59:31.881Z,44.79
2023-03-26T11:00:48.990Z,45.62
2023-03-26T11:02:04.475Z,42.34
2023-03-26T11:03:30.534Z,42.25
2023-03-26T11:04:36.279Z,42.81
2023-03-26T11:06:05.076Z,43.96
2023-03-26T11:07:46.833Z,42.74
2023-03-26T11:08:59.746Z,42.86
2023-03-26T11:10:51.070Z,43.00
2023-03-26T11:11:56.982Z,40.95
2023-03-26T11:13:15.344Z,40.42
2023-03-26T11:14:35.217Z,42.01
2023-03-26T11:15:53.181Z,43.46
2023-03-26T11:17:40.734Z,42.27
2023-03-26T11:19:21.133Z,40.48
2023-03-26T11:20:33.527Z,40.76
2023-03-26T11:22:16.108Z,41.10
2023-03-26T11:23:37.456Z,41.34
2023-03-26T11:25:05.737Z,42.18
2023-03-26T11:26:23.694Z,43.14
2023-03-26T11:27:53.701Z,43.41
2023-03-26T11:29:31.576Z,42.67
2023-03-26T11:31:01.992Z,42.56
2023-03-26T11:32:20.146Z,42.74
2023-03-26T11:33:38.202Z,42.14
2023-03-26T11:35:40.498Z,42.97
2023-03-26T11:36:54.699Z,42.54
2023-03-26T11:38:11.148Z,42.24
2023-03-26T11:39:22.297Z,41.52
2023-03-26T11:40:32.098Z,41.11
2023-03-26T11:41:36.936Z,41.32
2023-03-26T11:44:23.170Z,42.02
2023-03-26T11:45:31.079Z,42.46
2023-03-26T11:46:45.166Z,41.55
2023-03-26T11:47:53.192Z,39.70
2023-03-26T11:49:14.144Z,38.78
2023-03-26T11:50:23.205Z,38.93
2023-03-26T11:51:32.678Z,36.31
2023-03-26T11:52:35.537Z,36.59
2023-03-26T11:53:55.219Z,37.70
2023-03-26T11:54:59.760Z,36.91
2023-03-26T11:56:07.373Z,36.21
2023-03-26T11:57:19.739Z,36.51
2023-03-26T11:58:26.220Z,35.94
2023-03-26T12:00:15.200Z,35.76
2023-03-26T12:01:31.337Z,34.37
2023-03-26T12:02:42.179Z,33.95
2023-03-26T12:03:56.959Z,34.85
2023-03-26T12:05:26.208Z,35.89
2023-03-26T12:06:30.240Z,35.68
2023-03-26T12:07:35.864Z,34.36
2023-03-26T12:08:42.854Z,33.09
2023-03-26T12:10:18.386Z,33.33
2023-03-26T12:11:29.378Z,32.18
2023-03-26T12:12:40.070Z,32.01
2023-03-26T12:13:47.177Z,31.49
2023-03-26T12:14:50.236Z,32.66
2023-03-26T12:16:05.268Z,34.60
2023-03-26T12:17:32.129Z,34.52
2023-03-26T12:18:35.621Z,32.82
2023-03-26T12:19:47.517Z,34.00
2023-03-26T12:20:57.255Z,34.06
2023-03-26T12:22:00.105Z,33.65
2023-03-26T12:23:06.324Z,34.57
2023-03-26T12:24:30.954Z,33.27
2023-03-26T12:25:46.282Z,33.35
2023-03-26T12:26:51.504Z,33.39
2023-03-26T12:28:14.724Z,34.46
2023-03-26T12:29:20.030Z,34.45
2023-03-26T12:30:24.620Z,33.76
2023-03-26T12:31:34.369Z,34.45
2023-03-26T12:32:46.748Z,35.32
2023-03-26T12:34:08.870Z,35.56
2023-03-26T12:35:28.440Z,35.79
2023-03-26T12:36:41.272Z,36.14
2023-03-26T12:37:45.805Z,36.59
2023-03-26T12:39:43.646Z,37.75
2023-03-26T12:40:23.427Z,36.52
2023-03-26T12:43:40.240Z,36.88
2023-03-26T12:44:54.131Z,36.11
2023-03-26T12:44:58.821Z,35.62
2023-03-26T12:47:54.921Z,35.89
2023-03-26T12:48:00.711Z,36.23
2023-03-26T12:49:09.983Z,37.37
2023-03-26T12:50:17.119Z,36.64
2023-03-26T12:51:45.720Z,36.80
2023-03-26T12:53:10.449Z,35.58
2023-03-26T12:54:19.467Z,35.71
2023-03-26T12:55:31.386Z,36.21
2023-03-26T12:57:12.217Z,36.51
2023-03-26T12:58:55.484Z,36.65
2023-03-26T13:00:07.848Z,38.11
2023-03-26T13:01:27.636Z,38.85
2023-03-26T13:02:48.476Z,34.97
2023-03-26T13:04:31.434Z,36.24
2023-03-26T13:05:41.175Z,35.99
2023-03-26T13:07:00.328Z,35.95
2023-03-26T13:08:41.484Z,38.05
2023-03-26T13:09:51.736Z,36.56
2023-03-26T13:11:40.003Z,35.48
2023-03-26T13:12:47.675Z,35.23
2023-03-26T13:14:22.527Z,34.43
2023-03-26T13:15:36.935Z,35.20
2023-03-26T13:16:50.586Z,35.67
2023-03-26T13:18:31.556Z,35.67
2023-03-26T13:19:48.471Z,36.78
2023-03-26T13:21:09.475Z,37.21
2023-03-26T13:22:38.496Z,36.25
2023-03-26T13:24:08.312Z,36.62
2023-03-26T13:25:32.509Z,37.08
2023-03-26T13:26:56.655Z,37.93
2023-03-26T13:28:16.641Z,38.01
2023-03-26T13:29:45.164Z,36.25
2023-03-26T13:31:12.623Z,35.78
2023-03-26T13:32:28.234Z,35.91
2023-03-26T13:33:49.781Z,36.07
2023-03-26T13:35:01.505Z,35.13
2023-03-26T13:36:48.585Z,35.02
2023-03-26T13:38:02.344Z,35.49
2023-03-26T13:39:09.308Z,36.07
2023-03-26T13:40:18.309Z,36.14
2023-03-26T13:42:00.548Z,35.58
2023-03-26T13:43:09.429Z,35.69
2023-03-26T13:44:46.236Z,36.45
2023-03-26T13:46:19.593Z,36.75
2023-03-26T13:47:34.691Z,36.66
2023-03-26T13:48:49.284Z,34.78
2023-03-26T13:50:07.505Z,34.37
2023-03-26T13:51:58.527Z,34.89
2023-03-26T13:53:07.759Z,35.80
2023-03-26T13:54:18.940Z,35.31
2023-03-26T13:55:21.857Z,34.77
2023-03-26T13:56:38.688Z,35.61
2023-03-26T13:57:51.545Z,33.79
2023-03-26T13:59:01.689Z,33.73
2023-03-26T14:00:18.533Z,33.93
2023-03-26T14:01:51.617Z,33.95
2023-03-26T14:03:09.414Z,34.59
2023-03-26T14:04:34.599Z,34.40
2023-03-26T14:05:46.846Z,34.31
2023-03-26T14:07:20.597Z,35.98
2023-03-26T14:08:32.730Z,34.44
2023-03-26T14:09:42.160Z,34.75
2023-03-26T14:11:12.565Z,35.01
2023-03-26T14:12:30.634Z,35.28
2023-03-26T14:14:07.483Z,35.06
2023-03-26T14:15:20.835Z,36.63
2023-03-26T14:16:37.694Z,34.06
2023-03-26T14:18:04.681Z,34.34
2023-03-26T14:19:20.168Z,35.17
2023-03-26T14:20:29.441Z,34.71
2023-03-26T14:21:53.472Z,35.00
2023-03-26T14:23:02.615Z,36.27
2023-03-26T14:24:36.768Z,36.43
2023-03-26T14:26:17.055Z,33.69
2023-03-26T14:27:23.334Z,33.92
2023-03-26T14:28:41.625Z,33.20
2023-03-26T14:30:05.663Z,33.43
2023-03-26T14:31:24.407Z,32.11
2023-03-26T14:32:48.720Z,33.67
2023-03-26T14:34:06.207Z,34.79
2023-03-26T14:35:27.443Z,34.20
2023-03-26T14:36:48.063Z,35.59
2023-03-26T14:38:37.664Z,36.08
2023-03-26T14:40:19.475Z,34.24
2023-03-26T14:41:57.672Z,33.57
2023-03-26T14:43:36.698Z,32.48
2023-03-26T14:44:57.714Z,32.53
2023-03-26T14:46:17.068Z,31.91
2023-03-26T14:47:26.589Z,33.48
2023-03-26T14:48:35.378Z,33.36
2023-03-26T14:50:03.672Z,33.16
2023-03-26T14:51:10.221Z,34.35
2023-03-26T14:52:28.615Z,33.31
2023-03-26T14:53:36.194Z,33.36
2023-03-26T14:54:44.105Z,33.75
2023-03-26T14:56:02.793Z,32.90
2023-03-26T14:57:23.959Z,32.54
2023-03-26T14:58:54.441Z,33.28
2023-03-26T15:00:40.791Z,33.92
2023-03-26T15:02:11.268Z,33.05
2023-03-26T15:03:14.188Z,33.24
2023-03-26T15:04:28.758Z,34.87
2023-03-26T15:05:34.295Z,34.56
2023-03-26T15:06:58.780Z,34.56
2023-03-26T15:08:17.849Z,33.59
2023-03-26T15:09:32.910Z,32.96
2023-03-26T15:11:18.821Z,32.94
2023-03-26T15:12:53.134Z,33.75
2023-03-26T15:14:32.957Z,32.77
2023-03-26T15:15:38.645Z,32.74
2023-03-26T15:17:16.828Z,33.21
2023-03-26T15:18:56.820Z,32.95
2023-03-26T15:20:36.188Z,33.60
2023-03-26T15:22:26.139Z,34.74
2023-03-26T15:23:58.729Z,33.12
2023-03-26T15:25:10.281Z,33.48
2023-03-26T15:26:38.370Z,33.25
2023-03-26T15:28:22.852Z,33.17
2023-03-26T15:29:49.901Z,33.33
2023-03-26T15:31:12.487Z,34.02
2023-03-26T15:32:31.496Z,33.91
2023-03-26T15:33:51.847Z,34.19
2023-03-26T15:35:16.487Z,34.42
2023-03-26T15:36:29.498Z,34.99
2023-03-26T15:38:06.582Z,34.68
2023-03-26T15:39:39.857Z,34.11
2023-03-26T15:40:48.726Z,34.52
2023-03-26T15:42:24.641Z,34.15
2023-03-26T15:44:24.098Z,34.24
2023-03-26T15:45:46.489Z,34.08
2023-03-26T15:47:05.953Z,34.84
2023-03-26T15:48:15.219Z,35.00
2023-03-26T15:49:29.882Z,34.53
2023-03-26T15:50:57.023Z,34.84
2023-03-26T15:52:00.056Z,35.05
2023-03-26T15:53:03.424Z,35.41
2023-03-26T15:54:06.545Z,35.41
2023-03-26T15:55:24.876Z,35.36
2023-03-26T15:57:09.152Z,36.23
2023-03-26T15:59:13.072Z,35.91